createdAt,value
2022-12-01T14:37:14.041Z,-0.25
2022-12-01T14:45:47.236Z,-0.40
2022-12-01T14:54:17.943Z,-0.64
2022-12-01T15:03:00.349Z,-0.73
2022-12-01T15:11:25.212Z,-0.81
2022-12-01T15:19:46.720Z,-1.01
2022-12-01T15:28:11.124Z,-1.12
2022-12-01T15:36:32.806Z,-1.07
2022-12-01T15:45:21.568Z,-1.05
2022-12-01T15:53:57.558Z,-1.14
2022-12-01T16:02:34.439Z,-1.27
2022-12-01T16:11:17.734Z,-1.28
2022-12-01T16:19:43.546Z,-1.29
2022-12-01T16:28:17.353Z,-1.33
2022-12-01T16:36:40.459Z,-1.40
2022-12-01T16:45:04.030Z,-1.40
2022-12-01T16:53:27.030Z,-1.46
2022-12-01T17:01:50.056Z,-1.58
2022-12-01T17:10:14.193Z,-1.68
2022-12-01T17:18:38.875Z,-1.64
2022-12-01T17:27:01.919Z,-1.66
2022-12-01T17:35:25.653Z,-1.79
2022-12-01T17:43:49.059Z,-1.91
2022-12-01T17:52:12.134Z,-2.02
2022-12-01T18:00:35.130Z,-1.97
2022-12-01T18:09:00.549Z,-1.98
2022-12-01T18:17:23.551Z,-2.01
2022-12-01T18:25:46.497Z,-2.06
2022-12-01T18:34:11.296Z,-2.11
2022-12-01T18:42:34.216Z,-2.00
2022-12-01T18:51:02.648Z,-1.98
2022-12-01T18:59:27.283Z,-2.05
2022-12-01T19:07:53.196Z,-2.13
2022-12-01T19:16:18.145Z,-2.20
2022-12-01T19:24:44.752Z,-2.13
2022-12-01T19:33:10.050Z,-2.12
2022-12-01T19:41:33.066Z,-2.23
2022-12-01T19:49:56.140Z,-2.30
2022-12-01T19:58:19.532Z,-2.27
2022-12-01T20:06:43.381Z,-2.22
2022-12-01T20:15:08.905Z,-2.27
2022-12-01T20:23:31.996Z,-2.38
2022-12-01T20:31:57.406Z,-2.36
2022-12-01T20:40:20.542Z,-2.20
2022-12-01T20:48:44.190Z,-2.13
2022-12-01T20:57:07.824Z,-2.18
2022-12-01T21:05:33.233Z,-2.30
2022-12-01T21:13:56.860Z,-2.33
2022-12-01T21:22:20.295Z,-2.24
2022-12-01T21:30:43.431Z,-2.16
2022-12-01T21:39:14.737Z,-2.20
2022-12-01T21:47:38.156Z,-2.32
2022-12-01T21:56:02.148Z,-2.43
2022-12-01T22:04:30.157Z,-2.40
2022-12-01T22:12:53.428Z,-2.37
2022-12-01T22:21:22.734Z,-2.43
2022-12-01T22:29:48.050Z,-2.50
2022-12-01T22:38:31.009Z,-2.53
2022-12-01T22:46:58.816Z,-2.38
2022-12-01T22:55:21.739Z,-2.33
2022-12-01T23:03:44.868Z,-2.42
2022-12-01T23:12:10.839Z,-2.52
2022-12-01T23:20:35.143Z,-2.66
2022-12-01T23:29:00.540Z,-2.63
2022-12-01T23:37:44.832Z,-2.66
2022-12-01T23:46:11.087Z,-2.82
2022-12-01T23:54:37.648Z,-2.85
